sensor_id;sensor_type;location;lat;lon;timestamp;pressure;altitude;pressure_sealevel;temperature;humidity
52983;BME280;48698;45.736;13.926;2022-08-19T00:01:43;97036.38;;;20.92;100.00
52983;BME280;48698;45.736;13.926;2022-08-19T00:06:54;96934.75;;;20.31;100.00
52983;BME280;48698;45.736;13.926;2022-08-19T00:11:57;96951.50;;;20.86;100.00
52983;BME280;48698;45.736;13.926;2022-08-19T00:17:00;97000.28;;;21.44;100.00
52983;BME280;48698;45.736;13.926;2022-08-19T00:22:03;96867.78;;;20.78;100.00
52983;BME280;48698;45.736;13.926;2022-08-19T00:27:07;96993.88;;;21.79;100.00
52983;BME280;48698;45.736;13.926;2022-08-19T00:32:27;96935.56;;;21.60;100.00
52983;BME280;48698;45.736;13.926;2022-08-19T00:37:31;96869.06;;;20.66;100.00
52983;BME280;48698;45.736;13.926;2022-08-19T00:42:35;96883.50;;;20.13;100.00
52983;BME280;48698;45.736;13.926;2022-08-19T00:47:38;96883.50;;;19.78;100.00
52983;BME280;48698;45.736;13.926;2022-08-19T00:52:44;96890.34;;;19.73;100.00
52983;BME280;48698;45.736;13.926;2022-08-19T00:57:53;96911.84;;;19.28;100.00
52983;BME280;48698;45.736;13.926;2022-08-19T01:02:57;96823.50;;;18.49;100.00
52983;BME280;48698;45.736;13.926;2022-08-19T01:08:03;96885.34;;;19.05;100.00
52983;BME280;48698;45.736;13.926;2022-08-19T01:13:10;97037.03;;;20.33;100.00
52983;BME280;48698;45.736;13.926;2022-08-19T01:18:16;97007.47;;;20.41;100.00
52983;BME280;48698;45.736;13.926;2022-08-19T01:23:20;96895.28;;;19.95;100.00
52983;BME280;48698;45.736;13.926;2022-08-19T01:28:25;97150.53;;;20.02;100.00
52983;BME280;48698;45.736;13.926;2022-08-19T01:33:35;97426.28;;;19.45;100.00
52983;BME280;48698;45.736;13.926;2022-08-19T01:38:40;97550.63;;;19.09;100.00
52983;BME280;48698;45.736;13.926;2022-08-19T01:43:45;97492.00;;;17.55;100.00
52983;BME280;48698;45.736;13.926;2022-08-19T01:49:09;97589.97;;;18.05;100.00
52983;BME280;48698;45.736;13.926;2022-08-19T01:54:14;97481.19;;;18.20;100.00
52983;BME280;48698;45.736;13.926;2022-08-19T01:59:29;97525.88;;;18.32;100.00
52983;BME280;48698;45.736;13.926;2022-08-19T02:04:33;97450.97;;;18.28;100.00
52983;BME280;48698;45.736;13.926;2022-08-19T02:09:39;97434.81;;;18.39;100.00
52983;BME280;48698;45.736;13.926;2022-08-19T02:14:42;97483.31;;;18.37;100.00
52983;BME280;48698;45.736;13.926;2022-08-19T02:19:45;97545.41;;;18.02;100.00
52983;BME280;48698;45.736;13.926;2022-08-19T02:24:48;97653.50;;;18.06;100.00
52983;BME280;48698;45.736;13.926;2022-08-19T02:29:52;97534.06;;;18.31;100.00
52983;BME280;48698;45.736;13.926;2022-08-19T02:34:55;97464.69;;;18.25;100.00
52983;BME280;48698;45.736;13.926;2022-08-19T02:39:58;97420.63;;;18.16;100.00
52983;BME280;48698;45.736;13.926;2022-08-19T02:45:02;97344.91;;;18.11;100.00
52983;BME280;48698;45.736;13.926;2022-08-19T02:50:05;97326.56;;;18.16;100.00
52983;BME280;48698;45.736;13.926;2022-08-19T02:55:08;97316.47;;;18.08;100.00
52983;BME280;48698;45.736;13.926;2022-08-19T03:00:11;97301.59;;;18.04;100.00
52983;BME280;48698;45.736;13.926;2022-08-19T03:05:16;97327.06;;;18.31;100.00
52983;BME280;48698;45.736;13.926;2022-08-19T03:10:28;97312.72;;;18.21;100.00
52983;BME280;48698;45.736;13.926;2022-08-19T03:15:31;97307.19;;;18.13;100.00
52983;BME280;48698;45.736;13.926;2022-08-19T03:20:40;97281.72;;;17.86;100.00
52983;BME280;48698;45.736;13.926;2022-08-19T03:25:47;97269.69;;;17.90;100.00
52983;BME280;48698;45.736;13.926;2022-08-19T03:31:12;97266.41;;;18.07;100.00
52983;BME280;48698;45.736;13.926;2022-08-19T03:36:35;97272.50;;;18.10;100.00
52983;BME280;48698;45.736;13.926;2022-08-19T03:41:40;97275.47;;;17.65;100.00
52983;BME280;48698;45.736;13.926;2022-08-19T03:46:51;97268.81;;;17.48;100.00
52983;BME280;48698;45.736;13.926;2022-08-19T03:51:56;97268.94;;;17.47;100.00
52983;BME280;48698;45.736;13.926;2022-08-19T03:57:00;97297.88;;;17.75;100.00
52983;BME280;48698;45.736;13.926;2022-08-19T04:02:07;97323.03;;;17.95;100.00
52983;BME280;48698;45.736;13.926;2022-08-19T04:07:13;97380.19;;;17.65;100.00
52983;BME280;48698;45.736;13.926;2022-08-19T04:12:18;97393.41;;;17.57;100.00
52983;BME280;48698;45.736;13.926;2022-08-19T04:17:22;97467.84;;;17.44;100.00
52983;BME280;48698;45.736;13.926;2022-08-19T04:22:25;97477.38;;;17.37;100.00
52983;BME280;48698;45.736;13.926;2022-08-19T04:27:29;97480.19;;;17.58;100.00
52983;BME280;48698;45.736;13.926;2022-08-19T04:32:33;97534.63;;;17.26;100.00
52983;BME280;48698;45.736;13.926;2022-08-19T04:37:38;97540.34;;;17.22;100.00
52983;BME280;48698;45.736;13.926;2022-08-19T04:42:40;97502.50;;;17.14;100.00
52983;BME280;48698;45.736;13.926;2022-08-19T04:47:44;97490.81;;;17.15;100.00
52983;BME280;48698;45.736;13.926;2022-08-19T04:52:58;97411.69;;;17.09;100.00
52983;BME280;48698;45.736;13.926;2022-08-19T04:58:01;97303.22;;;16.80;100.00
52983;BME280;48698;45.736;13.926;2022-08-19T05:03:05;97284.91;;;16.74;100.00
52983;BME280;48698;45.736;13.926;2022-08-19T05:08:08;97254.81;;;16.81;100.00
52983;BME280;48698;45.736;13.926;2022-08-19T05:13:16;97219.09;;;17.13;100.00
52983;BME280;48698;45.736;13.926;2022-08-19T05:18:20;97188.34;;;17.17;100.00
52983;BME280;48698;45.736;13.926;2022-08-19T05:23:42;97157.72;;;17.19;100.00
52983;BME280;48698;45.736;13.926;2022-08-19T05:28:44;97147.97;;;17.39;100.00
52983;BME280;48698;45.736;13.926;2022-08-19T05:33:47;97112.00;;;17.30;100.00
52983;BME280;48698;45.736;13.926;2022-08-19T05:38:50;97082.16;;;17.44;100.00
52983;BME280;48698;45.736;13.926;2022-08-19T05:43:53;97108.81;;;17.57;100.00
52983;BME280;48698;45.736;13.926;2022-08-19T05:48:56;97112.53;;;17.66;100.00
52983;BME280;48698;45.736;13.926;2022-08-19T05:54:01;97057.88;;;17.46;100.00
52983;BME280;48698;45.736;13.926;2022-08-19T05:59:05;97061.06;;;17.61;100.00
52983;BME280;48698;45.736;13.926;2022-08-19T06:04:12;97080.34;;;17.75;100.00
52983;BME280;48698;45.736;13.926;2022-08-19T06:09:20;97064.84;;;17.88;100.00
52983;BME280;48698;45.736;13.926;2022-08-19T06:14:25;97029.53;;;18.02;100.00
52983;BME280;48698;45.736;13.926;2022-08-19T06:19:30;97031.50;;;18.10;100.00
52983;BME280;48698;45.736;13.926;2022-08-19T06:24:32;96995.00;;;17.98;100.00
52983;BME280;48698;45.736;13.926;2022-08-19T06:29:37;96992.47;;;18.06;100.00
52983;BME280;48698;45.736;13.926;2022-08-19T06:34:40;96948.06;;;18.12;100.00
52983;BME280;48698;45.736;13.926;2022-08-19T06:39:44;96953.69;;;18.47;100.00
52983;BME280;48698;45.736;13.926;2022-08-19T06:44:48;96968.44;;;18.62;100.00
52983;BME280;48698;45.736;13.926;2022-08-19T06:49:58;96934.75;;;18.48;100.00
52983;BME280;48698;45.736;13.926;2022-08-19T06:55:06;96936.44;;;18.69;100.00
52983;BME280;48698;45.736;13.926;2022-08-19T07:00:09;96959.66;;;19.06;100.00
52983;BME280;48698;45.736;13.926;2022-08-19T07:05:16;96936.00;;;19.10;100.00
52983;BME280;48698;45.736;13.926;2022-08-19T07:10:20;96936.69;;;19.49;100.00
52983;BME280;48698;45.736;13.926;2022-08-19T07:15:26;96906.94;;;19.50;100.00
52983;BME280;48698;45.736;13.926;2022-08-19T07:20:29;96884.16;;;19.63;100.00
52983;BME280;48698;45.736;13.926;2022-08-19T07:25:32;96843.09;;;19.78;100.00
52983;BME280;48698;45.736;13.926;2022-08-19T07:30:36;96836.34;;;20.18;100.00
52983;BME280;48698;45.736;13.926;2022-08-19T07:35:39;96828.16;;;20.79;100.00
52983;BME280;48698;45.736;13.926;2022-08-19T07:40:43;96832.00;;;21.52;100.00
52983;BME280;48698;45.736;13.926;2022-08-19T07:45:48;96839.88;;;22.11;100.00
52983;BME280;48698;45.736;13.926;2022-08-19T07:50:56;96851.38;;;22.05;100.00
52983;BME280;48698;45.736;13.926;2022-08-19T07:55:59;96840.16;;;21.84;100.00
52983;BME280;48698;45.736;13.926;2022-08-19T08:01:07;96865.91;;;22.04;100.00
52983;BME280;48698;45.736;13.926;2022-08-19T08:06:13;96853.03;;;22.31;100.00
52983;BME280;48698;45.736;13.926;2022-08-19T08:11:42;96839.03;;;22.19;100.00
52983;BME280;48698;45.736;13.926;2022-08-19T08:16:51;96894.78;;;22.60;100.00
52983;BME280;48698;45.736;13.926;2022-08-19T08:21:57;96903.88;;;23.08;100.00
52983;BME280;48698;45.736;13.926;2022-08-19T08:27:01;96925.78;;;23.45;100.00
52983;BME280;48698;45.736;13.926;2022-08-19T08:32:12;96903.72;;;23.09;100.00
52983;BME280;48698;45.736;13.926;2022-08-19T08:37:15;96929.34;;;23.38;100.00
52983;BME280;48698;45.736;13.926;2022-08-19T08:42:28;96892.59;;;22.96;100.00
52983;BME280;48698;45.736;13.926;2022-08-19T08:47:38;96925.78;;;22.82;100.00
52983;BME280;48698;45.736;13.926;2022-08-19T08:52:58;96780.34;;;21.71;100.00
52983;BME280;48698;45.736;13.926;2022-08-19T08:58:06;96892.94;;;22.61;100.00
52983;BME280;48698;45.736;13.926;2022-08-19T09:18:49;96863.91;;;23.18;100.00
52983;BME280;48698;45.736;13.926;2022-08-19T09:23:55;96901.91;;;23.49;100.00
52983;BME280;48698;45.736;13.926;2022-08-19T09:28:58;96867.22;;;23.75;100.00
52983;BME280;48698;45.736;13.926;2022-08-19T09:34:01;96918.88;;;24.95;100.00
52983;BME280;48698;45.736;13.926;2022-08-19T09:39:06;96886.19;;;25.03;100.00
52983;BME280;48698;45.736;13.926;2022-08-19T09:44:17;96900.72;;;25.10;100.00
52983;BME280;48698;45.736;13.926;2022-08-19T09:49:20;96861.25;;;25.44;100.00
52983;BME280;48698;45.736;13.926;2022-08-19T09:54:27;96907.41;;;26.38;100.00
52983;BME280;48698;45.736;13.926;2022-08-19T09:59:31;96890.00;;;27.09;100.00
52983;BME280;48698;45.736;13.926;2022-08-19T10:04:34;96872.63;;;28.05;100.00
52983;BME280;48698;45.736;13.926;2022-08-19T10:09:56;96828.84;;;28.53;100.00
52983;BME280;48698;45.736;13.926;2022-08-19T10:14:59;96841.22;;;28.22;100.00
52983;BME280;48698;45.736;13.926;2022-08-19T10:24:48;96776.06;;;27.87;100.00
52983;BME280;48698;45.736;13.926;2022-08-19T10:29:53;96871.91;;;27.36;100.00
52983;BME280;48698;45.736;13.926;2022-08-19T10:34:56;96876.72;;;26.79;100.00
52983;BME280;48698;45.736;13.926;2022-08-19T10:39:59;96785.75;;;26.73;100.00
52983;BME280;48698;45.736;13.926;2022-08-19T10:45:04;96876.44;;;27.22;100.00
52983;BME280;48698;45.736;13.926;2022-08-19T10:50:09;96759.97;;;25.71;100.00
52983;BME280;48698;45.736;13.926;2022-08-19T10:55:32;96847.63;;;25.73;100.00
52983;BME280;48698;45.736;13.926;2022-08-19T11:00:56;96952.50;;;25.61;100.00
52983;BME280;48698;45.736;13.926;2022-08-19T11:06:11;97039.91;;;24.13;100.00
52983;BME280;48698;45.736;13.926;2022-08-19T11:11:14;97095.00;;;21.17;100.00
52983;BME280;48698;45.736;13.926;2022-08-19T11:52:26;97040.06;;;22.52;100.00
52983;BME280;48698;45.736;13.926;2022-08-19T11:57:31;97113.78;;;23.12;100.00
52983;BME280;48698;45.736;13.926;2022-08-19T12:02:39;97139.19;;;23.51;100.00
52983;BME280;48698;45.736;13.926;2022-08-19T12:07:43;96990.00;;;22.64;100.00
52983;BME280;48698;45.736;13.926;2022-08-19T12:12:47;97069.19;;;23.71;100.00
52983;BME280;48698;45.736;13.926;2022-08-19T12:18:00;97091.22;;;23.76;100.00
52983;BME280;48698;45.736;13.926;2022-08-19T12:23:05;97084.38;;;23.88;100.00
52983;BME280;48698;45.736;13.926;2022-08-19T12:28:09;96951.00;;;24.24;100.00
52983;BME280;48698;45.736;13.926;2022-08-19T12:39:00;97080.06;;;25.02;100.00
52983;BME280;48698;45.736;13.926;2022-08-19T12:48:47;97071.63;;;24.97;100.00
52983;BME280;48698;45.736;13.926;2022-08-19T12:53:56;96970.13;;;24.76;100.00
52983;BME280;48698;45.736;13.926;2022-08-19T13:06:14;96938.81;;;25.02;100.00
52983;BME280;48698;45.736;13.926;2022-08-19T13:11:21;97047.69;;;25.38;100.00
52983;BME280;48698;45.736;13.926;2022-08-19T13:16:28;97048.22;;;25.71;100.00
52983;BME280;48698;45.736;13.926;2022-08-19T13:21:32;97033.69;;;25.64;100.00
52983;BME280;48698;45.736;13.926;2022-08-19T13:26:37;97049.81;;;25.80;100.00
52983;BME280;48698;45.736;13.926;2022-08-19T13:31:41;97016.41;;;26.01;100.00
52983;BME280;48698;45.736;13.926;2022-08-19T13:37:04;97056.66;;;25.91;100.00
52983;BME280;48698;45.736;13.926;2022-08-19T13:42:08;97021.22;;;25.55;100.00
52983;BME280;48698;45.736;13.926;2022-08-19T13:47:13;96987.84;;;25.61;100.00
52983;BME280;48698;45.736;13.926;2022-08-19T13:52:17;96957.72;;;25.48;100.00
52983;BME280;48698;45.736;13.926;2022-08-19T13:57:22;97013.31;;;25.89;100.00
52983;BME280;48698;45.736;13.926;2022-08-19T14:02:25;96949.69;;;25.54;100.00
52983;BME280;48698;45.736;13.926;2022-08-19T14:07:29;97001.94;;;26.15;100.00
52983;BME280;48698;45.736;13.926;2022-08-19T14:12:33;96967.75;;;25.91;100.00
52983;BME280;48698;45.736;13.926;2022-08-19T14:17:43;97050.59;;;26.90;100.00
52983;BME280;48698;45.736;13.926;2022-08-19T14:22:47;97018.72;;;27.11;100.00
52983;BME280;48698;45.736;13.926;2022-08-19T14:27:51;97029.63;;;27.11;100.00
52983;BME280;48698;45.736;13.926;2022-08-19T14:32:56;96993.78;;;26.87;100.00
52983;BME280;48698;45.736;13.926;2022-08-19T14:38:02;96862.72;;;26.11;100.00
52983;BME280;48698;45.736;13.926;2022-08-19T14:43:07;96880.44;;;26.07;100.00
52983;BME280;48698;45.736;13.926;2022-08-19T14:48:11;96795.19;;;25.79;100.00
52983;BME280;48698;45.736;13.926;2022-08-19T14:53:21;97011.69;;;27.45;100.00
52983;BME280;48698;45.736;13.926;2022-08-19T14:58:24;96980.91;;;27.51;100.00
52983;BME280;48698;45.736;13.926;2022-08-19T15:03:31;96910.75;;;27.10;100.00
52983;BME280;48698;45.736;13.926;2022-08-19T15:08:36;96952.47;;;26.83;100.00
52983;BME280;48698;45.736;13.926;2022-08-19T15:13:42;96827.41;;;26.67;100.00
52983;BME280;48698;45.736;13.926;2022-08-19T15:18:51;96971.63;;;27.80;100.00
52983;BME280;48698;45.736;13.926;2022-08-19T15:23:57;96856.22;;;27.04;100.00
52983;BME280;48698;45.736;13.926;2022-08-19T15:29:02;96850.09;;;26.74;100.00
52983;BME280;48698;45.736;13.926;2022-08-19T15:34:06;96851.00;;;26.32;100.00
52983;BME280;48698;45.736;13.926;2022-08-19T15:39:09;96805.44;;;26.19;100.00
52983;BME280;48698;45.736;13.926;2022-08-19T15:44:15;96929.66;;;27.18;100.00
52983;BME280;48698;45.736;13.926;2022-08-19T15:49:20;96803.16;;;26.44;100.00
52983;BME280;48698;45.736;13.926;2022-08-19T15:54:24;96869.69;;;26.84;100.00
52983;BME280;48698;45.736;13.926;2022-08-19T15:59:27;96982.81;;;27.57;100.00
52983;BME280;48698;45.736;13.926;2022-08-19T16:04:52;96909.53;;;26.43;100.00
52983;BME280;48698;45.736;13.926;2022-08-19T16:10:14;96831.59;;;24.98;100.00
52983;BME280;48698;45.736;13.926;2022-08-19T16:15:29;97007.50;;;25.63;100.00
52983;BME280;48698;45.736;13.926;2022-08-19T16:20:32;96949.06;;;25.15;100.00
52983;BME280;48698;45.736;13.926;2022-08-19T16:25:37;96991.91;;;25.42;100.00
52983;BME280;48698;45.736;13.926;2022-08-19T16:30:41;96933.22;;;25.04;100.00
52983;BME280;48698;45.736;13.926;2022-08-19T16:35:53;97006.91;;;25.38;100.00
52983;BME280;48698;45.736;13.926;2022-08-19T16:41:02;96967.44;;;25.28;100.00
52983;BME280;48698;45.736;13.926;2022-08-19T16:46:05;96942.47;;;25.09;100.00
52983;BME280;48698;45.736;13.926;2022-08-19T16:51:09;96911.41;;;25.12;100.00
52983;BME280;48698;45.736;13.926;2022-08-19T16:56:13;97016.03;;;25.89;100.00
52983;BME280;48698;45.736;13.926;2022-08-19T17:01:17;97021.38;;;26.27;100.00
52983;BME280;48698;45.736;13.926;2022-08-19T17:06:23;97014.31;;;26.89;100.00
52983;BME280;48698;45.736;13.926;2022-08-19T17:11:29;97014.28;;;26.47;100.00
52983;BME280;48698;45.736;13.926;2022-08-19T17:16:35;97020.25;;;26.78;100.00
52983;BME280;48698;45.736;13.926;2022-08-19T17:21:38;97026.09;;;26.75;100.00
52983;BME280;48698;45.736;13.926;2022-08-19T17:26:42;97034.72;;;26.22;100.00
52983;BME280;48698;45.736;13.926;2022-08-19T17:31:46;96931.69;;;26.04;100.00
52983;BME280;48698;45.736;13.926;2022-08-19T17:36:49;97069.22;;;26.06;100.00
52983;BME280;48698;45.736;13.926;2022-08-19T17:41:52;97050.25;;;25.17;100.00
52983;BME280;48698;45.736;13.926;2022-08-19T17:46:57;97076.03;;;24.45;100.00
52983;BME280;48698;45.736;13.926;2022-08-19T17:52:00;96942.47;;;23.10;100.00
52983;BME280;48698;45.736;13.926;2022-08-19T17:57:10;97128.44;;;23.98;100.00
52983;BME280;48698;45.736;13.926;2022-08-19T18:02:14;97112.06;;;23.67;100.00
52983;BME280;48698;45.736;13.926;2022-08-19T18:07:22;97108.16;;;23.38;100.00
52983;BME280;48698;45.736;13.926;2022-08-19T18:12:26;97143.59;;;23.36;100.00
52983;BME280;48698;45.736;13.926;2022-08-19T18:17:29;97145.81;;;23.49;100.00
52983;BME280;48698;45.736;13.926;2022-08-19T18:22:36;97151.56;;;23.46;100.00
52983;BME280;48698;45.736;13.926;2022-08-19T18:27:39;97160.84;;;23.19;100.00
52983;BME280;48698;45.736;13.926;2022-08-19T18:32:45;97040.38;;;22.33;100.00
52983;BME280;48698;45.736;13.926;2022-08-19T18:37:51;97144.75;;;22.93;100.00
52983;BME280;48698;45.736;13.926;2022-08-19T18:42:54;97024.19;;;21.91;100.00
52983;BME280;48698;45.736;13.926;2022-08-19T18:48:16;97146.81;;;22.15;100.00
52983;BME280;48698;45.736;13.926;2022-08-19T18:53:40;97071.66;;;21.34;100.00
52983;BME280;48698;45.736;13.926;2022-08-19T18:58:44;97226.34;;;22.31;100.00
52983;BME280;48698;45.736;13.926;2022-08-19T19:03:50;97203.28;;;22.19;100.00
52983;BME280;48698;45.736;13.926;2022-08-19T19:08:56;97069.44;;;20.68;100.00
52983;BME280;48698;45.736;13.926;2022-08-19T19:14:00;97250.47;;;21.37;100.00
52983;BME280;48698;45.736;13.926;2022-08-19T19:19:06;97192.84;;;21.01;100.00
52983;BME280;48698;45.736;13.926;2022-08-19T19:24:09;97242.25;;;21.11;100.00
52983;BME280;48698;45.736;13.926;2022-08-19T19:29:17;97269.97;;;21.49;100.00
52983;BME280;48698;45.736;13.926;2022-08-19T19:34:23;97249.09;;;20.61;100.00
52983;BME280;48698;45.736;13.926;2022-08-19T19:39:31;97149.84;;;20.00;100.00
52983;BME280;48698;45.736;13.926;2022-08-19T19:44:53;97288.16;;;20.84;100.00
52983;BME280;48698;45.736;13.926;2022-08-19T19:49:56;97244.56;;;20.52;100.00
52983;BME280;48698;45.736;13.926;2022-08-19T19:55:18;97213.50;;;20.11;100.00
52983;BME280;48698;45.736;13.926;2022-08-19T20:00:22;97292.06;;;20.45;100.00
52983;BME280;48698;45.736;13.926;2022-08-19T20:05:25;97265.06;;;20.45;100.00
52983;BME280;48698;45.736;13.926;2022-08-19T20:10:29;97207.34;;;20.19;100.00
52983;BME280;48698;45.736;13.926;2022-08-19T20:15:34;97263.22;;;19.89;100.00
52983;BME280;48698;45.736;13.926;2022-08-19T20:20:43;97313.84;;;20.05;100.00
52983;BME280;48698;45.736;13.926;2022-08-19T20:25:49;97228.38;;;19.69;100.00
52983;BME280;48698;45.736;13.926;2022-08-19T20:30:53;97219.88;;;19.35;100.00
52983;BME280;48698;45.736;13.926;2022-08-19T20:35:56;97284.06;;;19.87;100.00
52983;BME280;48698;45.736;13.926;2022-08-19T20:41:02;97286.78;;;19.78;100.00
52983;BME280;48698;45.736;13.926;2022-08-19T20:46:06;97178.63;;;18.67;100.00
52983;BME280;48698;45.736;13.926;2022-08-19T20:51:10;97279.94;;;19.26;100.00
52983;BME280;48698;45.736;13.926;2022-08-19T20:56:13;97273.88;;;19.62;100.00
52983;BME280;48698;45.736;13.926;2022-08-19T21:01:17;97123.50;;;18.42;100.00
52983;BME280;48698;45.736;13.926;2022-08-19T21:06:21;97210.22;;;18.84;100.00
52983;BME280;48698;45.736;13.926;2022-08-19T21:11:24;97286.72;;;19.01;100.00
52983;BME280;48698;45.736;13.926;2022-08-19T21:16:28;97147.63;;;18.14;100.00
52983;BME280;48698;45.736;13.926;2022-08-19T21:21:31;97127.47;;;17.59;100.00
52983;BME280;48698;45.736;13.926;2022-08-19T21:26:35;97241.88;;;18.52;100.00
52983;BME280;48698;45.736;13.926;2022-08-19T21:31:38;97269.16;;;18.97;100.00
52983;BME280;48698;45.736;13.926;2022-08-19T21:36:42;97289.16;;;19.23;100.00
52983;BME280;48698;45.736;13.926;2022-08-19T21:41:45;97071.53;;;17.13;100.00
52983;BME280;48698;45.736;13.926;2022-08-19T21:46:48;97118.88;;;17.65;100.00
52983;BME280;48698;45.736;13.926;2022-08-19T21:51:52;97254.81;;;18.47;100.00
52983;BME280;48698;45.736;13.926;2022-08-19T21:56:55;97264.34;;;18.21;100.00
52983;BME280;48698;45.736;13.926;2022-08-19T22:01:59;97278.81;;;18.29;100.00
52983;BME280;48698;45.736;13.926;2022-08-19T22:07:21;97211.69;;;17.58;100.00
52983;BME280;48698;45.736;13.926;2022-08-19T22:12:32;97226.47;;;18.03;100.00
52983;BME280;48698;45.736;13.926;2022-08-19T22:17:36;97171.78;;;17.53;100.00
52983;BME280;48698;45.736;13.926;2022-08-19T22:22:48;97282.34;;;17.99;100.00
52983;BME280;48698;45.736;13.926;2022-08-19T22:27:52;97228.72;;;17.68;100.00
52983;BME280;48698;45.736;13.926;2022-08-19T22:32:58;97287.69;;;18.20;100.00
52983;BME280;48698;45.736;13.926;2022-08-19T22:38:04;97262.91;;;18.17;100.00
52983;BME280;48698;45.736;13.926;2022-08-19T22:43:11;97289.69;;;17.56;100.00
52983;BME280;48698;45.736;13.926;2022-08-19T22:48:20;97223.72;;;17.42;100.00
52983;BME280;48698;45.736;13.926;2022-08-19T22:53:25;97209.41;;;17.21;100.00
52983;BME280;48698;45.736;13.926;2022-08-19T22:58:28;97163.63;;;17.13;100.00
52983;BME280;48698;45.736;13.926;2022-08-19T23:03:32;97243.41;;;17.32;100.00
52983;BME280;48698;45.736;13.926;2022-08-19T23:08:36;97170.34;;;17.08;100.00
52983;BME280;48698;45.736;13.926;2022-08-19T23:13:41;97246.66;;;17.67;100.00
52983;BME280;48698;45.736;13.926;2022-08-19T23:18:45;97273.22;;;17.91;100.00
52983;BME280;48698;45.736;13.926;2022-08-19T23:23:49;97063.38;;;16.73;100.00
52983;BME280;48698;45.736;13.926;2022-08-19T23:28:52;97160.19;;;17.11;100.00
52983;BME280;48698;45.736;13.926;2022-08-19T23:34:14;97148.91;;;16.76;100.00
52983;BME280;48698;45.736;13.926;2022-08-19T23:39:18;97216.38;;;16.92;100.00
52983;BME280;48698;45.736;13.926;2022-08-19T23:44:21;97228.47;;;17.18;100.00
52983;BME280;48698;45.736;13.926;2022-08-19T23:49:26;97170.00;;;17.01;100.00
52983;BME280;48698;45.736;13.926;2022-08-19T23:54:29;97189.47;;;16.82;100.00
52983;BME280;48698;45.736;13.926;2022-08-19T23:59:44;97280.63;;;17.25;100.00
